Bookmark and Share
Track history (hours):
 

Nyk Deneb

Last reported at 2014-Apr-16 15:25 UTC. Time now 2014-Apr-19 14:29 UTC.
Position N 33°57' E 129°26'.

Length 294 m; draft 12 m.

Type: Ship (hazmat cat A). MMSI: 355717000.

NotesDate/timePositionNaut miles runAvg speedWind from/ knotsBaromVisibWave heightAir tempDewpointWater temp
2014-Apr-16 15:25N 33°57' E 129°26'1720.2
2014-Apr-16 14:33N 33°44' E 129°12'37518.7
2014-Apr-15 18:32N 30°36' E 122°49'1919.1
2014-Apr-15 17:32N 30°32' E 122°27'1010.4
2014-Apr-15 16:33N 30°33' E 122°15'1110.7
2014-Apr-15 15:33N 30°37' E 122°04'2 0.1
2014-Apr-15 01:31N 30°38' E 122°03'0 0.3
2014-Apr-15 00:32N 30°38' E 122°03'10 9.7
2014-Apr-14 23:34N 30°34' E 122°13'9 9.2
2014-Apr-14 22:33N 30°32' E 122°23'10 9.9
2014-Apr-14 21:33N 30°30' E 122°35'1110.9
2014-Apr-14 20:33N 30°27' E 122°47'6 0.5
2014-Apr-14 08:30N 30°21' E 122°49'0 0.1
2014-Apr-14 07:30N 30°21' E 122°49'0 0.0
2014-Apr-13 14:33N 30°21' E 122°49'23 9.1
2014-Apr-13 12:03N 29°59' E 122°55'714.3
2014-Apr-13 11:33N 29°53' E 122°51'1312.5
2014-Apr-13 10:33N 29°45' E 122°40'1211.6
2014-Apr-13 09:33N 29°42' E 122°27'1211.7
2014-Apr-13 08:33N 29°48' E 122°15'9 9.1
2014-Apr-13 07:33N 29°48' E 122°05'5 4.3
2014-Apr-13 06:30N 29°46' E 122°00'0 0.0
2014-Apr-13 05:24N 29°46' E 122°00'0 0.0
2014-Apr-13 04:30N 29°46' E 122°00'0 0.0
2014-Apr-13 03:30N 29°46' E 122°00'0 0.0
2014-Apr-13 02:12N 29°46' E 122°00'0 0.0
2014-Apr-13 01:24N 29°46' E 122°00'0 0.0
2014-Apr-13 00:30N 29°46' E 122°00'0 0.0
2014-Apr-12 23:24N 29°46' E 122°00'2 1.8
2014-Apr-12 22:33N 29°47' E 122°02'1110.7
2014-Apr-12 21:33N 29°49' E 122°14'1110.6
2014-Apr-12 20:33N 29°44' E 122°24'9 8.5
2014-Apr-12 19:33N 29°41' E 122°34'9 8.7
2014-Apr-12 18:33N 29°45' E 122°42'5 5.0
2014-Apr-12 17:33N 29°50' E 122°43'0 0.0
2014-Apr-12 16:34N 29°50' E 122°43'0 0.0
2014-Apr-12 09:32N 29°50' E 122°43'5 4.9
2014-Apr-12 08:33N 29°50' E 122°48'38013.1
2014-Apr-11 03:26N 35°55' E 120°44'1314.8
2014-Apr-11 02:33N 35°59' E 120°28'10 9.7
2014-Apr-11 01:33N 36°02' E 120°17'4 3.4
2014-Apr-11 00:31N 36°01' E 120°13'0 0.0
2014-Apr-10 04:13N 36°01' E 120°13'5 7.3
2014-Apr-10 03:31N 36°02' E 120°19'1010.0
2014-Apr-10 02:33N 35°60' E 120°30'10 9.9
2014-Apr-10 01:32N 35°58' E 120°42'15 0.5
2014-Apr-08 20:30N 35°52' E 120°59'0 0.0
2014-Apr-08 19:24N 35°52' E 120°59'0 0.1
2014-Apr-08 17:12N 35°52' E 120°59'0 0.1
2014-Apr-08 16:24N 35°52' E 120°59'0 0.0
2014-Apr-08 15:24N 35°52' E 120°59'0 0.1
2014-Apr-08 14:30N 35°52' E 120°59'0 0.0
2014-Apr-08 12:03N 35°52' E 120°59'0 0.0
2014-Apr-08 11:18N 35°52' E 120°59'0 0.1
2014-Apr-08 10:30N 35°52' E 120°59'0 0.0
2014-Apr-08 09:24N 35°52' E 120°59'0 0.1
2014-Apr-08 08:33N 35°52' E 120°59'0 0.0
2014-Apr-08 07:33N 35°52' E 120°59'0 0.1
2014-Apr-08 06:24N 35°52' E 120°58'0 0.0
2014-Apr-07 22:12N 35°52' E 120°59'0 0.1
2014-Apr-07 21:30N 35°52' E 120°59'0 0.0
2014-Apr-07 20:24N 35°52' E 120°59'0 0.1
2014-Apr-07 19:30N 35°52' E 120°59'0 0.1
2014-Apr-07 17:30N 35°52' E 120°59'0 0.0
2014-Apr-07 09:27N 35°52' E 120°59'3 3.4
2014-Apr-07 08:31N 35°51' E 121°03'  

Dump ship's entire track history

sailing weather and tide predictions

Nyk Deneb — 3EOF8 — position and weather